createdAt,value
2019-02-14T00:00:09.080Z,7.27
2019-02-14T00:02:37.661Z,7.00
2019-02-14T00:05:06.240Z,7.67
2019-02-14T00:07:34.881Z,9.03
2019-02-14T00:10:05.380Z,10.30
2019-02-14T00:12:34.375Z,10.20
2019-02-14T00:15:02.934Z,17.07
2019-02-14T00:17:31.747Z,26.73
2019-02-14T00:20:00.236Z,28.57
2019-02-14T00:22:32.165Z,31.63
2019-02-14T00:25:01.053Z,34.37
2019-02-14T00:27:29.636Z,27.07
2019-02-14T00:30:00.120Z,25.37
2019-02-14T00:32:29.083Z,26.97
2019-02-14T00:34:58.076Z,25.23
2019-02-14T00:37:26.531Z,24.80
2019-02-14T00:39:56.150Z,23.83
2019-02-14T00:42:24.711Z,24.67
2019-02-14T00:44:53.313Z,23.27
2019-02-14T00:47:22.119Z,22.40
2019-02-14T00:49:50.783Z,20.93
2019-02-14T00:52:19.438Z,21.60
2019-02-14T00:54:47.947Z,20.23
2019-02-14T00:57:16.532Z,19.17
2019-02-14T00:59:45.066Z,19.20
2019-02-14T01:02:13.938Z,18.63
2019-02-14T01:04:42.453Z,18.70
2019-02-14T01:07:11.086Z,19.60
2019-02-14T01:09:43.373Z,16.70
2019-02-14T01:12:12.611Z,16.93
2019-02-14T01:14:41.355Z,16.67
2019-02-14T01:17:10.353Z,15.87
2019-02-14T01:19:38.913Z,15.70
2019-02-14T01:22:07.724Z,15.10
2019-02-14T01:24:36.282Z,13.93
2019-02-14T01:27:05.095Z,13.40
2019-02-14T01:29:33.654Z,13.13
2019-02-14T01:32:02.469Z,12.57
2019-02-14T01:34:31.154Z,12.90
2019-02-14T01:36:59.811Z,12.30
2019-02-14T01:39:28.529Z,11.90
2019-02-14T01:41:57.203Z,10.27
2019-02-14T01:44:26.957Z,8.07
2019-02-14T01:46:55.482Z,8.37
2019-02-14T01:49:24.170Z,8.07
2019-02-14T01:51:52.748Z,8.40
2019-02-14T01:54:21.564Z,8.03
2019-02-14T01:56:53.406Z,8.27
2019-02-14T01:59:21.900Z,7.47
2019-02-14T02:01:50.459Z,7.63
2019-02-14T02:04:19.046Z,7.40
2019-02-14T02:06:47.755Z,7.77
2019-02-14T02:09:16.309Z,7.43
2019-02-14T02:11:45.741Z,6.87
2019-02-14T02:14:14.443Z,7.47
2019-02-14T02:16:42.959Z,7.13
2019-02-14T02:19:11.566Z,6.70
2019-02-14T02:21:40.150Z,7.00
2019-02-14T02:24:08.942Z,7.10
2019-02-14T02:26:37.433Z,6.60
2019-02-14T02:29:05.973Z,6.50
2019-02-14T02:31:34.693Z,6.87
2019-02-14T02:34:03.274Z,6.47
2019-02-14T02:36:31.983Z,6.73
2019-02-14T02:39:00.949Z,6.80
2019-02-14T02:41:31.272Z,6.53
2019-02-14T02:43:59.852Z,6.13
2019-02-14T02:46:28.342Z,6.00
2019-02-14T02:48:57.512Z,6.20
2019-02-14T02:51:25.958Z,5.90
2019-02-14T02:53:54.639Z,6.30
2019-02-14T02:56:23.326Z,6.07
2019-02-14T02:58:52.000Z,6.10
2019-02-14T03:01:20.664Z,5.97
2019-02-14T03:03:49.375Z,5.43
2019-02-14T03:06:18.065Z,5.63
2019-02-14T03:08:46.485Z,5.53
2019-02-14T03:11:15.095Z,5.60
2019-02-14T03:13:45.517Z,6.23
2019-02-14T03:16:13.951Z,5.83
2019-02-14T03:18:42.692Z,5.20
2019-02-14T03:21:11.266Z,5.90
2019-02-14T03:23:40.081Z,5.53
2019-02-14T03:26:08.843Z,5.90
2019-02-14T03:28:37.428Z,5.60
2019-02-14T03:31:06.449Z,5.30
2019-02-14T03:33:36.377Z,6.17
2019-02-14T03:36:05.021Z,5.30
2019-02-14T03:38:33.741Z,5.57
2019-02-14T03:41:02.420Z,5.43
2019-02-14T03:43:31.423Z,5.60
2019-02-14T03:46:00.480Z,5.60
2019-02-14T03:48:29.035Z,5.27
2019-02-14T03:50:57.649Z,5.83
2019-02-14T03:53:28.127Z,5.30
2019-02-14T03:55:56.453Z,5.77
2019-02-14T03:58:28.159Z,5.20
2019-02-14T04:00:56.749Z,5.50
2019-02-14T04:03:25.583Z,5.57
2019-02-14T04:05:54.500Z,5.50
2019-02-14T04:08:23.187Z,5.20
2019-02-14T04:10:51.889Z,5.20
2019-02-14T04:13:20.562Z,5.23
2019-02-14T04:15:49.746Z,5.20
2019-02-14T04:18:18.546Z,5.13
2019-02-14T04:20:47.224Z,5.30
2019-02-14T04:23:16.857Z,5.57
2019-02-14T04:25:45.524Z,5.13
2019-02-14T04:28:14.180Z,5.37
2019-02-14T04:30:42.831Z,5.27
2019-02-14T04:33:11.470Z,5.30
2019-02-14T04:35:40.145Z,5.17
2019-02-14T04:38:08.733Z,5.30
2019-02-14T04:40:37.219Z,5.03
2019-02-14T04:43:05.785Z,5.70
2019-02-14T04:45:34.372Z,5.20
2019-02-14T04:48:03.158Z,5.67
2019-02-14T04:50:31.678Z,5.10
2019-02-14T04:53:00.224Z,5.50
2019-02-14T04:55:28.807Z,4.90
2019-02-14T04:57:57.701Z,5.23
2019-02-14T05:00:26.511Z,5.10
2019-02-14T05:02:55.201Z,4.80
2019-02-14T05:05:23.645Z,5.27
2019-02-14T05:07:52.139Z,5.30
2019-02-14T05:10:39.965Z,4.73
2019-02-14T05:13:08.651Z,4.87
2019-02-14T05:15:37.184Z,5.33
2019-02-14T05:18:25.226Z,4.93
2019-02-14T05:20:53.808Z,5.17
2019-02-14T05:23:22.264Z,5.13
2019-02-14T05:25:50.820Z,4.90
2019-02-14T05:28:19.534Z,5.40
2019-02-14T05:30:48.090Z,5.47
2019-02-14T05:33:16.801Z,5.40
2019-02-14T05:35:45.592Z,5.77
2019-02-14T05:38:15.908Z,5.33
2019-02-14T05:40:44.374Z,5.47
2019-02-14T05:43:13.165Z,5.47
2019-02-14T05:45:45.252Z,5.40
2019-02-14T05:48:13.846Z,5.53
2019-02-14T05:50:42.389Z,4.87
2019-02-14T05:53:10.857Z,5.40
2019-02-14T05:55:39.370Z,5.60
2019-02-14T05:58:07.940Z,4.90
2019-02-14T06:00:36.750Z,5.40
2019-02-14T06:03:07.061Z,5.50
2019-02-14T06:05:35.522Z,5.20
2019-02-14T06:08:04.008Z,5.50
2019-02-14T06:10:32.595Z,4.77
2019-02-14T06:13:04.224Z,5.07
2019-02-14T06:15:32.797Z,5.20
2019-02-14T06:18:01.329Z,5.23
2019-02-14T06:20:29.899Z,5.70
2019-02-14T06:22:58.613Z,4.90
2019-02-14T06:25:27.299Z,5.23
2019-02-14T06:27:55.982Z,5.20
2019-02-14T06:30:24.955Z,5.47
2019-02-14T06:32:54.923Z,5.10
2019-02-14T06:35:23.460Z,5.00
2019-02-14T06:37:52.138Z,5.23
2019-02-14T06:40:20.818Z,5.27
2019-02-14T06:42:49.400Z,5.00
2019-02-14T06:45:19.028Z,5.13
2019-02-14T06:47:47.594Z,4.87
2019-02-14T06:50:16.177Z,5.00
2019-02-14T06:52:44.626Z,5.03
2019-02-14T06:55:13.555Z,5.00
2019-02-14T06:57:42.366Z,5.17
2019-02-14T07:00:14.120Z,5.37
2019-02-14T07:02:42.648Z,5.20
2019-02-14T07:05:11.439Z,5.00
2019-02-14T07:07:40.586Z,5.10
2019-02-14T07:10:10.884Z,5.70
2019-02-14T07:12:39.420Z,5.50
2019-02-14T07:15:10.689Z,5.80
2019-02-14T07:17:39.197Z,5.93
2019-02-14T07:20:10.895Z,5.33
2019-02-14T07:22:39.424Z,5.40
2019-02-14T07:25:10.347Z,5.50
2019-02-14T07:27:38.802Z,5.30
2019-02-14T07:30:16.954Z,5.33
2019-02-14T07:32:45.551Z,5.47
2019-02-14T07:35:14.159Z,5.40
2019-02-14T07:37:42.712Z,5.50
2019-02-14T07:40:15.218Z,5.60
2019-02-14T07:42:44.796Z,5.37
2019-02-14T07:45:18.217Z,5.57
2019-02-14T07:47:46.801Z,5.13
2019-02-14T07:50:15.368Z,5.00
2019-02-14T07:52:44.905Z,5.40
2019-02-14T07:55:14.267Z,5.20
2019-02-14T07:57:43.302Z,5.60
2019-02-14T08:00:17.167Z,5.00
2019-02-14T08:02:45.748Z,5.00
2019-02-14T08:05:14.333Z,5.30
2019-02-14T08:07:42.922Z,5.10
2019-02-14T08:10:16.542Z,5.50
2019-02-14T08:12:45.208Z,5.10
2019-02-14T08:15:15.589Z,5.40
2019-02-14T08:17:44.259Z,5.10
2019-02-14T08:20:15.566Z,5.33
2019-02-14T08:22:44.143Z,5.00
2019-02-14T08:25:15.794Z,5.00
2019-02-14T08:27:44.512Z,4.93
2019-02-14T08:30:16.144Z,5.33
2019-02-14T08:32:44.648Z,4.93
2019-02-14T08:35:13.127Z,5.03
2019-02-14T08:37:45.688Z,5.10
2019-02-14T08:40:14.856Z,4.93
2019-02-14T08:42:43.562Z,5.17
2019-02-14T08:45:12.496Z,5.20
2019-02-14T08:47:41.682Z,4.63
2019-02-14T08:50:10.963Z,4.67
2019-02-14T08:52:39.752Z,5.07
2019-02-14T08:55:10.272Z,4.57
2019-02-14T08:57:39.229Z,4.87
2019-02-14T09:00:15.326Z,5.00
2019-02-14T09:02:43.909Z,4.67
2019-02-14T09:05:12.390Z,5.00
2019-02-14T09:07:40.969Z,4.93
2019-02-14T09:10:12.754Z,5.37
2019-02-14T09:12:41.441Z,4.60
2019-02-14T09:15:29.348Z,5.00
2019-02-14T09:17:58.166Z,5.10
2019-02-14T09:20:26.845Z,4.57
2019-02-14T09:22:55.407Z,4.93
2019-02-14T09:25:23.889Z,4.73
2019-02-14T09:27:52.909Z,4.87
2019-02-14T09:30:21.596Z,4.73
2019-02-14T09:32:50.261Z,4.90
2019-02-14T09:35:19.273Z,5.20
2019-02-14T09:37:48.942Z,5.00
2019-02-14T09:40:20.393Z,5.00
2019-02-14T09:42:50.730Z,5.30
2019-02-14T09:45:19.112Z,5.10
2019-02-14T09:50:22.791Z,4.90
2019-02-14T09:52:51.446Z,5.30
2019-02-14T09:55:19.918Z,5.13
2019-02-14T09:57:48.482Z,5.00
2019-02-14T10:00:18.238Z,5.07
2019-02-14T10:02:46.866Z,4.90
2019-02-14T10:05:15.616Z,5.33
2019-02-14T10:07:44.154Z,5.20
2019-02-14T10:10:24.174Z,5.80
2019-02-14T10:12:52.768Z,5.17
2019-02-14T10:15:21.368Z,6.10
2019-02-14T10:17:49.945Z,5.87
2019-02-14T10:20:18.970Z,6.20
2019-02-14T10:22:47.658Z,6.20
2019-02-14T10:25:16.338Z,5.90
2019-02-14T10:27:45.201Z,6.10
2019-02-14T10:30:21.934Z,6.07
2019-02-14T10:32:50.520Z,5.80
2019-02-14T10:35:19.046Z,6.47
2019-02-14T10:37:47.759Z,6.10
2019-02-14T10:40:17.365Z,5.80
2019-02-14T10:42:46.006Z,6.10
2019-02-14T10:45:21.984Z,5.80
2019-02-14T10:47:50.565Z,6.20
2019-02-14T10:50:19.172Z,6.53
2019-02-14T10:52:47.858Z,6.80
2019-02-14T10:55:16.825Z,6.57
2019-02-14T10:57:45.305Z,6.50
2019-02-14T11:00:23.129Z,6.97
2019-02-14T11:02:51.995Z,10.50
2019-02-14T11:05:20.820Z,8.63
2019-02-14T11:07:49.367Z,8.20
2019-02-14T11:10:20.211Z,9.43
2019-02-14T11:12:48.710Z,10.10
2019-02-14T11:15:22.523Z,12.27
2019-02-14T11:17:51.174Z,13.63
2019-02-14T11:20:19.760Z,13.30
2019-02-14T11:22:49.142Z,13.53
2019-02-14T11:25:36.083Z,12.67
2019-02-14T11:28:04.568Z,11.93
2019-02-14T11:30:34.875Z,13.47
2019-02-14T11:33:03.362Z,13.90
2019-02-14T11:35:31.948Z,14.87
2019-02-14T11:38:01.067Z,14.80
2019-02-14T11:40:29.728Z,12.20
2019-02-14T11:42:58.449Z,10.50
2019-02-14T11:45:27.433Z,10.17
2019-02-14T11:47:56.115Z,10.37
2019-02-14T11:50:24.803Z,10.30
2019-02-14T11:52:53.291Z,10.60
2019-02-14T11:55:22.487Z,10.47
2019-02-14T11:57:52.094Z,10.37
2019-02-14T12:00:28.241Z,9.40
2019-02-14T12:02:56.547Z,10.10
2019-02-14T12:05:25.660Z,10.07
2019-02-14T12:07:54.290Z,9.57
2019-02-14T12:10:22.892Z,9.07
2019-02-14T12:12:51.578Z,8.97
2019-02-14T12:15:20.136Z,8.97
2019-02-14T12:17:48.954Z,9.23
2019-02-14T12:20:17.636Z,9.17
2019-02-14T12:22:47.365Z,8.77
2019-02-14T12:25:19.283Z,8.63
2019-02-14T12:27:47.814Z,8.80
2019-02-14T12:30:16.681Z,9.30
2019-02-14T12:32:45.367Z,8.87
2019-02-14T12:35:14.052Z,8.80
2019-02-14T12:37:42.593Z,8.50
2019-02-14T12:40:12.833Z,8.30
2019-02-14T12:42:41.644Z,8.43
2019-02-14T12:45:20.548Z,8.30
2019-02-14T12:47:46.401Z,8.40
2019-02-14T12:50:15.077Z,8.00
2019-02-14T12:52:44.069Z,8.30
2019-02-14T12:55:12.620Z,7.93
2019-02-14T12:57:42.896Z,8.17
2019-02-14T13:00:17.012Z,8.40
2019-02-14T13:02:45.693Z,8.30
2019-02-14T13:05:14.813Z,7.80
2019-02-14T13:07:44.290Z,7.93
2019-02-14T13:10:20.229Z,8.17
2019-02-14T13:12:48.919Z,8.00
2019-02-14T13:15:26.698Z,8.17
2019-02-14T13:17:55.272Z,7.53
2019-02-14T13:20:23.888Z,7.83
2019-02-14T13:22:54.165Z,7.70
2019-02-14T13:25:22.792Z,7.70
2019-02-14T13:27:53.503Z,7.27
2019-02-14T13:30:24.867Z,7.30
2019-02-14T13:32:53.462Z,7.97
2019-02-14T13:35:22.150Z,6.93
2019-02-14T13:37:50.676Z,7.23
2019-02-14T13:40:19.285Z,6.97
2019-02-14T13:42:47.730Z,7.07
2019-02-14T13:45:22.414Z,7.67
2019-02-14T13:47:51.036Z,7.10
2019-02-14T13:50:20.096Z,7.13
2019-02-14T13:52:48.864Z,7.20
2019-02-14T13:55:17.437Z,7.20
2019-02-14T13:57:45.959Z,7.23
2019-02-14T14:00:28.971Z,6.80
2019-02-14T14:02:57.422Z,6.77
2019-02-14T14:05:26.004Z,6.70
2019-02-14T14:07:54.697Z,6.70
2019-02-14T14:10:23.163Z,6.77
2019-02-14T14:12:51.756Z,6.53
2019-02-14T14:15:39.792Z,7.17
2019-02-14T14:18:09.720Z,6.80
2019-02-14T14:20:38.396Z,6.43
2019-02-14T14:23:06.991Z,6.40
2019-02-14T14:25:35.664Z,6.23
2019-02-14T14:28:04.435Z,6.73
2019-02-14T14:30:33.961Z,5.60
2019-02-14T14:33:02.774Z,6.20
2019-02-14T14:35:31.843Z,6.30
2019-02-14T14:38:00.331Z,6.77
2019-02-14T14:40:29.142Z,6.17
2019-02-14T14:43:05.279Z,6.53
2019-02-14T14:45:41.563Z,6.30
2019-02-14T14:48:19.206Z,6.00
2019-02-14T14:50:42.181Z,6.57
2019-02-14T14:53:10.787Z,6.37
2019-02-14T14:55:39.686Z,6.27
2019-02-14T14:58:08.372Z,6.23
2019-02-14T15:00:36.928Z,6.30
2019-02-14T15:03:05.509Z,6.20
2019-02-14T15:05:34.095Z,6.00
2019-02-14T15:08:02.680Z,5.90
2019-02-14T15:10:31.267Z,5.90
2019-02-14T15:12:59.841Z,5.93
2019-02-14T15:15:28.435Z,6.00
2019-02-14T15:17:57.246Z,5.93
2019-02-14T15:20:25.904Z,6.20
2019-02-14T15:22:56.368Z,6.70
2019-02-14T15:25:25.454Z,6.23
2019-02-14T15:27:54.002Z,6.03
2019-02-14T15:30:22.612Z,5.80
2019-02-14T15:32:51.211Z,6.10
2019-02-14T15:35:20.895Z,6.00
2019-02-14T15:37:49.425Z,6.20
2019-02-14T15:40:18.056Z,5.80
2019-02-14T15:42:46.744Z,6.20
2019-02-14T15:45:15.557Z,6.07
2019-02-14T15:47:44.249Z,5.90
2019-02-14T15:50:13.111Z,5.67
2019-02-14T15:52:41.940Z,8.10
2019-02-14T15:55:10.478Z,9.00
2019-02-14T15:57:42.949Z,10.63
2019-02-14T16:00:13.992Z,9.30
2019-02-14T16:02:42.591Z,8.80
2019-02-14T16:05:11.185Z,8.27
2019-02-14T16:07:43.020Z,8.27
2019-02-14T16:10:18.086Z,8.10
2019-02-14T16:12:44.014Z,8.57
2019-02-14T16:15:12.409Z,8.27
2019-02-14T16:17:41.556Z,7.83
2019-02-14T16:20:10.646Z,7.80
2019-02-14T16:22:40.235Z,8.10
2019-02-14T16:25:09.551Z,7.43
2019-02-14T16:27:38.137Z,7.67
2019-02-14T16:30:09.903Z,7.87
2019-02-14T16:32:38.709Z,7.73
2019-02-14T16:35:08.383Z,7.40
2019-02-14T16:37:36.841Z,7.77
2019-02-14T16:40:08.332Z,7.10
2019-02-14T16:42:36.908Z,7.67
2019-02-14T16:45:07.953Z,7.67
2019-02-14T16:47:36.663Z,8.20
2019-02-14T16:50:08.699Z,7.47
2019-02-14T16:52:37.413Z,7.47
2019-02-14T16:55:07.157Z,7.20
2019-02-14T16:57:35.612Z,7.90
2019-02-14T17:00:05.798Z,8.27
2019-02-14T17:02:34.387Z,10.03
2019-02-14T17:05:03.077Z,10.37
2019-02-14T17:07:31.652Z,12.00
2019-02-14T17:10:03.412Z,12.00
2019-02-14T17:12:31.879Z,13.20
2019-02-14T17:15:00.499Z,13.13
2019-02-14T17:17:29.188Z,14.53
2019-02-14T17:20:00.925Z,13.47
2019-02-14T17:22:29.630Z,12.70
2019-02-14T17:24:58.236Z,12.63
2019-02-14T17:27:27.003Z,13.57
2019-02-14T17:29:55.665Z,13.10
2019-02-14T17:32:24.374Z,12.53
2019-02-14T17:34:52.940Z,12.80
2019-02-14T17:37:26.388Z,12.77
2019-02-14T17:39:55.022Z,12.57
2019-02-14T17:42:24.033Z,12.30
2019-02-14T17:44:52.718Z,13.00
2019-02-14T17:47:21.375Z,12.27
2019-02-14T17:49:50.397Z,12.30
2019-02-14T17:52:19.089Z,11.53
2019-02-14T17:54:47.801Z,11.67
2019-02-14T17:57:16.768Z,11.10
2019-02-14T17:59:45.349Z,11.13
2019-02-14T18:02:14.731Z,11.10
2019-02-14T18:04:43.434Z,11.27
2019-02-14T18:07:13.746Z,10.73
2019-02-14T18:09:42.341Z,11.40
2019-02-14T18:12:10.914Z,11.07
2019-02-14T18:14:39.489Z,10.77
2019-02-14T18:17:08.087Z,10.77
2019-02-14T18:19:37.086Z,10.80
2019-02-14T18:22:05.647Z,10.13
2019-02-14T18:24:34.458Z,11.20
2019-02-14T18:27:03.147Z,10.93
2019-02-14T18:29:32.137Z,10.60
2019-02-14T18:32:00.693Z,10.63
2019-02-14T18:34:29.511Z,10.03
2019-02-14T18:36:58.066Z,10.27
2019-02-14T18:39:26.673Z,9.97
2019-02-14T18:41:55.271Z,11.13
2019-02-14T18:44:23.751Z,10.03
2019-02-14T18:46:52.631Z,10.57
2019-02-14T18:49:21.165Z,10.60
2019-02-14T18:51:50.002Z,10.27
2019-02-14T18:54:18.687Z,10.47
2019-02-14T18:56:47.326Z,9.83
2019-02-14T18:59:15.970Z,10.23
2019-02-14T19:01:44.749Z,9.70
2019-02-14T19:04:13.373Z,9.80
2019-02-14T19:06:44.014Z,10.47
2019-02-14T19:09:12.661Z,10.50
2019-02-14T19:11:41.405Z,10.37
2019-02-14T19:14:10.302Z,10.43
2019-02-14T19:16:39.959Z,10.00
2019-02-14T19:19:09.681Z,9.40
2019-02-14T19:21:38.241Z,9.43
2019-02-14T19:24:09.956Z,9.60
2019-02-14T19:26:38.680Z,10.03
2019-02-14T19:29:08.673Z,9.30
2019-02-14T19:31:37.349Z,9.83
2019-02-14T19:34:05.959Z,9.87
2019-02-14T19:36:34.641Z,9.83
2019-02-14T19:39:04.538Z,10.20
2019-02-14T19:41:33.112Z,14.03
2019-02-14T19:44:01.928Z,12.20
2019-02-14T19:46:30.491Z,10.93
2019-02-14T19:48:59.306Z,11.93
2019-02-14T19:51:27.860Z,11.83
2019-02-14T19:53:56.984Z,11.27
2019-02-14T19:56:25.971Z,10.87
2019-02-14T19:58:54.729Z,10.47
2019-02-14T20:01:25.231Z,10.77
2019-02-14T20:03:53.565Z,11.33
2019-02-14T20:06:22.330Z,10.77
2019-02-14T20:08:50.940Z,11.00
2019-02-14T20:11:19.610Z,11.20
2019-02-14T20:13:49.755Z,11.03
2019-02-14T20:16:18.405Z,10.40
2019-02-14T20:18:46.984Z,10.60
2019-02-14T20:21:18.667Z,10.77
2019-02-14T20:23:47.352Z,10.67
2019-02-14T20:26:19.015Z,10.63
2019-02-14T20:28:47.564Z,10.50
2019-02-14T20:31:16.062Z,10.27
2019-02-14T20:33:44.741Z,11.17
2019-02-14T20:36:14.423Z,10.47
2019-02-14T20:38:43.157Z,10.30
2019-02-14T20:41:13.561Z,10.87
2019-02-14T20:43:42.375Z,10.53
2019-02-14T20:46:14.131Z,10.60
2019-02-14T20:48:42.686Z,10.63
2019-02-14T20:51:14.453Z,10.40
2019-02-14T20:53:42.937Z,10.33
2019-02-14T20:56:12.516Z,10.90
2019-02-14T20:58:40.962Z,10.17
2019-02-14T21:01:12.673Z,10.43
2019-02-14T21:03:41.360Z,9.27
2019-02-14T21:06:13.445Z,10.17
2019-02-14T21:08:43.773Z,10.17
2019-02-14T21:11:12.358Z,9.93
2019-02-14T21:13:41.044Z,10.07
2019-02-14T21:16:09.711Z,10.83
2019-02-14T21:18:38.719Z,10.23
2019-02-14T21:21:07.390Z,10.13
2019-02-14T21:23:35.848Z,10.47
2019-02-14T21:26:05.440Z,9.67
2019-02-14T21:28:34.055Z,10.37
2019-02-14T21:31:04.535Z,9.77
2019-02-14T21:33:32.999Z,10.70
2019-02-14T21:36:01.547Z,10.70
2019-02-14T21:38:30.028Z,10.17
2019-02-14T21:40:58.613Z,9.77
2019-02-14T21:43:27.190Z,10.00
2019-02-14T21:45:55.667Z,10.60
2019-02-14T21:48:24.192Z,10.17
2019-02-14T21:50:52.867Z,9.90
2019-02-14T21:53:21.532Z,10.50
2019-02-14T21:55:50.122Z,10.00
2019-02-14T21:58:18.932Z,10.17
2019-02-14T22:00:47.996Z,10.40
2019-02-14T22:03:16.810Z,10.87
2019-02-14T22:05:45.603Z,10.17
2019-02-14T22:08:14.279Z,9.93
2019-02-14T22:10:42.967Z,10.10
2019-02-14T22:13:12.611Z,10.90
2019-02-14T22:15:41.259Z,18.10
2019-02-14T22:18:09.831Z,17.83
2019-02-14T22:20:41.676Z,19.23
2019-02-14T22:23:10.160Z,20.33
2019-02-14T22:25:38.766Z,20.77
2019-02-14T22:28:07.235Z,21.53
2019-02-14T22:30:35.829Z,21.30
2019-02-14T22:33:04.389Z,21.23
2019-02-14T22:35:33.201Z,22.17
2019-02-14T22:38:01.719Z,22.70
2019-02-14T22:40:30.241Z,23.73
2019-02-14T22:42:58.734Z,23.40
2019-02-14T22:45:27.307Z,22.03
2019-02-14T22:47:56.038Z,20.60
2019-02-14T22:50:24.586Z,20.53
2019-02-14T22:52:53.160Z,19.60
2019-02-14T22:55:21.635Z,20.50
2019-02-14T22:57:50.224Z,22.30
2019-02-14T23:00:32.654Z,19.67
2019-02-14T23:03:01.650Z,21.07
2019-02-14T23:05:30.125Z,20.27
2019-02-14T23:07:58.722Z,22.77
2019-02-14T23:10:27.310Z,24.17
2019-02-14T23:12:56.311Z,22.90
2019-02-14T23:15:25.568Z,23.30
2019-02-14T23:17:54.382Z,22.37
2019-02-14T23:20:23.372Z,22.73
2019-02-14T23:22:51.930Z,21.17
2019-02-14T23:25:20.745Z,20.37
2019-02-14T23:27:50.280Z,19.70
2019-02-14T23:30:18.805Z,19.50
2019-02-14T23:32:47.415Z,18.53
2019-02-14T23:35:15.977Z,18.30
2019-02-14T23:37:44.472Z,18.10
2019-02-14T23:40:13.040Z,17.50
2019-02-14T23:42:41.623Z,17.47
2019-02-14T23:45:10.845Z,17.77
2019-02-14T23:47:39.610Z,17.90
2019-02-14T23:50:10.260Z,16.20
2019-02-14T23:52:38.739Z,16.27
2019-02-14T23:55:08.464Z,17.67
2019-02-14T23:57:38.765Z,16.67
